Time,TemperatureF,DewpointF,PressureIn,WindDirection,WindDirectionDegrees,WindSpeedMPH,WindSpeedGustMPH,Humidity,HourlyPrecipIn,Conditions,Clouds,dailyrainin,SolarRadiationWatts/m^2,SoftwareType,DateUTC
2013-05-15 00:01:00,53.8,44.6,30.02,NNE,12,0.0,0.0,71,0.00,,,0.00,0,WeatherCatV1.15B25,2013-05-15 04:01:00,
2013-05-15 00:06:00,53.6,43.3,30.02,NNE,12,0.0,0.0,68,0.00,,,0.00,0,WeatherCatV1.15B25,2013-05-15 04:06:00,
2013-05-15 00:11:00,53.5,43.2,30.02,NNE,12,0.0,0.0,68,0.00,,,0.00,0,WeatherCatV1.15B25,2013-05-15 04:11:00,
2013-05-15 00:16:00,53.6,42.1,30.02,NNE,17,0.0,1.0,65,0.00,,,0.00,0,WeatherCatV1.15B25,2013-05-15 04:16:00,
2013-05-15 00:21:00,53.8,43.1,30.02,NNE,17,0.0,0.0,67,0.00,,,0.00,0,WeatherCatV1.15B25,2013-05-15 04:21:00,
2013-05-15 00:26:00,53.8,43.9,30.02,NNE,12,0.0,0.0,69,0.00,,,0.00,0,WeatherCatV1.15B25,2013-05-15 04:26:00,
2013-05-15 00:31:00,53.7,43.8,30.01,NNE,12,0.0,0.0,69,0.00,,,0.00,0,WeatherCatV1.15B25,2013-05-15 04:31:00,
2013-05-15 00:36:00,53.7,44.9,30.01,NNE,12,0.0,0.0,72,0.00,,,0.00,0,WeatherCatV1.15B25,2013-05-15 04:36:00,
2013-05-15 00:41:00,53.7,43.0,30.00,NNE,12,0.0,1.0,67,0.00,,,0.00,0,WeatherCatV1.15B25,2013-05-15 04:41:00,
2013-05-15 00:46:00,53.6,45.2,30.00,NNE,12,0.0,0.0,73,0.00,,,0.00,0,WeatherCatV1.15B25,2013-05-15 04:46:00,
2013-05-15 00:51:00,53.4,45.0,30.00,NNE,12,0.0,0.0,73,0.00,,,0.00,0,WeatherCatV1.15B25,2013-05-15 04:51:00,
2013-05-15 00:55:00,53.1,43.9,30.00,NNE,12,0.0,1.0,71,0.00,,,0.00,0,WeatherCatV1.15B25,2013-05-15 04:55:00,
2013-05-15 00:56:00,53.0,44.2,29.99,NNE,12,0.0,1.0,72,0.00,,,0.00,0,WeatherCatV1.15B25,2013-05-15 04:56:00,
2013-05-15 01:01:00,52.7,43.2,29.99,NNE,12,0.0,0.0,70,0.00,,,0.00,0,WeatherCatV1.15B25,2013-05-15 05:01:00,
2013-05-15 01:06:00,52.5,44.1,29.99,WNW,296,1.0,2.0,73,0.00,,,0.00,0,WeatherCatV1.15B25,2013-05-15 05:06:00,
2013-05-15 01:11:00,52.3,44.3,29.99,WNW,296,0.0,0.0,74,0.00,,,0.00,0,WeatherCatV1.15B25,2013-05-15 05:11:00,
2013-05-15 01:16:00,52.0,43.3,29.99,WNW,296,0.0,1.0,72,0.00,,,0.00,0,WeatherCatV1.15B25,2013-05-15 05:16:00,
2013-05-15 01:21:00,51.8,43.1,29.99,WNW,296,0.0,0.0,72,0.00,,,0.00,0,WeatherCatV1.15B25,2013-05-15 05:21:00,
2013-05-15 01:26:00,51.6,43.6,29.99,WNW,296,0.0,1.0,74,0.00,,,0.00,0,WeatherCatV1.15B25,2013-05-15 05:26:00,
2013-05-15 01:31:00,51.4,43.0,29.99,WNW,296,0.0,0.0,73,0.00,,,0.00,0,WeatherCatV1.15B25,2013-05-15 05:31:00,
2013-05-15 01:36:00,51.3,43.6,29.98,WNW,296,0.0,0.0,75,0.00,,,0.00,0,WeatherCatV1.15B25,2013-05-15 05:36:00,
2013-05-15 01:41:00,51.2,44.2,29.98,WNW,296,0.0,0.0,77,0.00,,,0.00,0,WeatherCatV1.15B25,2013-05-15 05:41:00,
2013-05-15 01:46:00,51.1,44.1,29.98,WNW,296,0.0,0.0,77,0.00,,,0.00,0,WeatherCatV1.15B25,2013-05-15 05:46:00,
2013-05-15 01:53:00,51.0,44.0,29.97,WNW,296,1.0,1.0,77,0.00,,,0.00,0,WeatherCatV1.15B25,2013-05-15 05:53:00,
2013-05-15 01:58:00,51.1,44.8,29.97,WNW,296,0.0,0.0,79,0.00,,,0.00,0,WeatherCatV1.15B25,2013-05-15 05:58:00,
2013-05-15 02:00:00,51.0,44.7,29.97,WNW,296,0.0,0.0,79,0.00,,,0.00,0,WeatherCatV1.15B25,2013-05-15 06:00:00,
2013-05-15 02:06:00,51.0,44.4,29.98,WNW,296,0.0,0.0,78,0.00,,,0.00,0,WeatherCatV1.15B25,2013-05-15 06:06:00,
2013-05-15 02:09:00,50.9,44.6,29.98,WNW,296,0.0,0.0,79,0.00,,,0.00,0,WeatherCatV1.15B25,2013-05-15 06:09:00,
2013-05-15 02:14:00,50.9,44.6,29.98,North,7,0.0,0.0,79,0.00,,,0.00,0,WeatherCatV1.15B25,2013-05-15 06:14:00,
2013-05-15 02:19:00,50.8,44.9,29.98,North,2,0.0,0.0,80,0.00,,,0.00,0,WeatherCatV1.15B25,2013-05-15 06:19:00,
2013-05-15 02:24:00,50.6,44.3,29.98,North,2,0.0,0.0,79,0.00,,,0.00,0,WeatherCatV1.15B25,2013-05-15 06:24:00,
2013-05-15 02:31:00,50.6,44.3,29.97,North,2,0.0,0.0,79,0.00,,,0.00,0,WeatherCatV1.15B25,2013-05-15 06:31:00,
2013-05-15 02:36:00,50.6,45.0,29.97,North,2,0.0,0.0,81,0.00,,,0.00,0,WeatherCatV1.15B25,2013-05-15 06:36:00,
2013-05-15 02:41:00,50.6,44.7,29.97,North,2,0.0,1.0,80,0.00,,,0.00,0,WeatherCatV1.15B25,2013-05-15 06:41:00,
2013-05-15 02:46:00,50.5,44.6,29.97,North,2,0.0,0.0,80,0.00,,,0.00,0,WeatherCatV1.15B25,2013-05-15 06:46:00,
2013-05-15 02:51:00,50.4,44.5,29.97,North,2,0.0,0.0,80,0.00,,,0.00,0,WeatherCatV1.15B25,2013-05-15 06:51:00,
2013-05-15 02:56:00,50.3,44.4,29.97,North,2,0.0,0.0,80,0.00,,,0.00,0,WeatherCatV1.15B25,2013-05-15 06:56:00,
2013-05-15 03:01:00,50.2,44.6,29.96,North,2,0.0,0.0,81,0.00,,,0.00,0,WeatherCatV1.15B25,2013-05-15 07:01:00,
2013-05-15 03:06:00,50.0,44.4,29.97,North,2,0.0,0.0,81,0.00,,,0.00,0,WeatherCatV1.15B25,2013-05-15 07:06:00,
2013-05-15 03:11:00,49.9,44.0,29.97,North,2,0.0,1.0,80,0.00,,,0.00,0,WeatherCatV1.15B25,2013-05-15 07:11:00,
2013-05-15 03:16:00,49.9,43.6,29.96,NE,42,0.0,1.0,79,0.00,,,0.00,0,WeatherCatV1.15B25,2013-05-15 07:16:00,
2013-05-15 03:21:00,50.1,44.2,29.96,NE,42,0.0,1.0,80,0.00,,,0.00,0,WeatherCatV1.15B25,2013-05-15 07:21:00,
2013-05-15 03:26:00,50.1,44.2,29.96,NE,42,1.0,2.0,80,0.00,,,0.00,0,WeatherCatV1.15B25,2013-05-15 07:26:00,
2013-05-15 03:31:00,50.0,43.7,29.96,NE,46,0.0,2.0,79,0.00,,,0.00,0,WeatherCatV1.15B25,2013-05-15 07:31:00,
2013-05-15 03:32:00,50.0,43.7,29.96,NE,45,0.0,2.0,79,0.00,,,0.00,0,WeatherCatV1.15B25,2013-05-15 07:32:00,
2013-05-15 03:37:00,50.0,43.7,29.96,NE,45,0.0,0.0,79,0.00,,,0.00,0,WeatherCatV1.15B25,2013-05-15 07:37:00,
2013-05-15 03:42:00,49.9,44.0,29.95,NE,45,0.0,0.0,80,0.00,,,0.00,0,WeatherCatV1.15B25,2013-05-15 07:42:00,
2013-05-15 03:47:00,49.7,43.8,29.95,NE,45,0.0,0.0,80,0.00,,,0.00,0,WeatherCatV1.15B25,2013-05-15 07:47:00,
2013-05-15 03:52:00,49.6,43.7,29.95,NE,46,0.0,0.0,80,0.00,,,0.00,0,WeatherCatV1.15B25,2013-05-15 07:52:00,
2013-05-15 03:57:00,49.5,43.9,29.96,NE,45,0.0,0.0,81,0.00,,,0.00,0,WeatherCatV1.15B25,2013-05-15 07:57:00,
2013-05-15 04:02:00,49.4,43.8,29.95,NE,46,0.0,0.0,81,0.00,,,0.00,0,WeatherCatV1.15B25,2013-05-15 08:02:00,
2013-05-15 04:07:00,49.2,43.9,29.95,NE,46,0.0,0.0,82,0.00,,,0.00,0,WeatherCatV1.15B25,2013-05-15 08:07:00,
2013-05-15 04:12:00,49.1,43.8,29.95,NE,46,0.0,0.0,82,0.00,,,0.00,0,WeatherCatV1.15B25,2013-05-15 08:12:00,
2013-05-15 04:17:00,49.0,43.7,29.94,NE,45,0.0,0.0,82,0.00,,,0.00,0,WeatherCatV1.15B25,2013-05-15 08:17:00,
2013-05-15 04:22:00,48.8,43.9,29.94,NE,45,0.0,0.0,83,0.00,,,0.00,0,WeatherCatV1.15B25,2013-05-15 08:22:00,
2013-05-15 04:27:00,48.7,43.8,29.95,NE,45,0.0,0.0,83,0.00,,,0.00,0,WeatherCatV1.15B25,2013-05-15 08:27:00,
2013-05-15 04:32:00,48.4,43.5,29.95,NE,45,0.0,0.0,83,0.00,,,0.00,0,WeatherCatV1.15B25,2013-05-15 08:32:00,
2013-05-15 04:37:00,48.2,43.3,29.95,NE,45,0.0,0.0,83,0.00,,,0.00,0,WeatherCatV1.15B25,2013-05-15 08:37:00,
2013-05-15 04:42:00,48.1,43.2,29.95,NE,46,0.0,0.0,83,0.00,,,0.00,0,WeatherCatV1.15B25,2013-05-15 08:42:00,
2013-05-15 04:47:00,48.0,43.1,29.95,NE,46,0.0,0.0,83,0.00,,,0.00,0,WeatherCatV1.15B25,2013-05-15 08:47:00,
2013-05-15 04:52:00,48.0,43.4,29.95,NE,45,0.0,1.0,84,0.00,,,0.00,0,WeatherCatV1.15B25,2013-05-15 08:52:00,
2013-05-15 04:57:00,48.0,43.4,29.95,NE,45,0.0,0.0,84,0.00,,,0.00,0,WeatherCatV1.15B25,2013-05-15 08:57:00,
2013-05-15 05:02:00,48.0,43.4,29.94,NE,45,0.0,0.0,84,0.00,,,0.00,0,WeatherCatV1.15B25,2013-05-15 09:02:00,
2013-05-15 05:07:00,48.0,43.4,29.94,NE,45,0.0,0.0,84,0.00,,,0.00,0,WeatherCatV1.15B25,2013-05-15 09:07:00,
2013-05-15 05:12:00,47.8,43.2,29.94,NE,45,0.0,0.0,84,0.00,,,0.00,0,WeatherCatV1.15B25,2013-05-15 09:12:00,
2013-05-15 05:17:00,47.6,43.0,29.94,North,351,1.0,1.0,84,0.00,,,0.00,0,WeatherCatV1.15B25,2013-05-15 09:17:00,
2013-05-15 05:22:00,47.2,42.6,29.94,North,350,1.0,1.0,84,0.00,,,0.00,0,WeatherCatV1.15B25,2013-05-15 09:22:00,
2013-05-15 05:26:00,46.9,42.6,29.94,North,350,1.0,1.0,85,0.00,,,0.00,0,WeatherCatV1.15B25,2013-05-15 09:26:00,
2013-05-15 05:31:00,46.5,42.2,29.94,North,350,0.0,1.0,85,0.00,,,0.00,0,WeatherCatV1.15B25,2013-05-15 09:31:00,
2013-05-15 05:36:00,46.4,42.1,29.94,North,350,0.0,0.0,85,0.00,,,0.00,0,WeatherCatV1.15B25,2013-05-15 09:36:00,
2013-05-15 05:39:00,46.2,41.9,29.94,North,350,0.0,0.0,85,0.00,,,0.00,0,WeatherCatV1.15B25,2013-05-15 09:39:00,
2013-05-15 05:44:00,46.1,41.8,29.94,North,350,0.0,0.0,85,0.00,,,0.00,0,WeatherCatV1.15B25,2013-05-15 09:44:00,
2013-05-15 05:49:00,46.0,41.7,29.94,North,350,0.0,0.0,85,0.00,,,0.00,0,WeatherCatV1.15B25,2013-05-15 09:49:00,
2013-05-15 05:54:00,45.9,41.6,29.94,North,350,0.0,0.0,85,0.00,,,0.00,0,WeatherCatV1.15B25,2013-05-15 09:54:00,
2013-05-15 05:59:00,45.9,41.6,29.93,North,350,0.0,0.0,85,0.00,,,0.00,0,WeatherCatV1.15B25,2013-05-15 09:59:00,
2013-05-15 06:04:00,45.8,41.5,29.94,North,350,0.0,0.0,85,0.00,,,0.00,5,WeatherCatV1.15B25,2013-05-15 10:04:00,
2013-05-15 06:09:00,45.7,41.8,29.94,North,350,0.0,1.0,86,0.00,,,0.00,7,WeatherCatV1.15B25,2013-05-15 10:09:00,
2013-05-15 06:14:00,45.6,41.4,29.94,North,350,0.0,0.0,85,0.00,,,0.00,12,WeatherCatV1.15B25,2013-05-15 10:14:00,
2013-05-15 06:19:00,45.6,41.4,29.94,North,350,0.0,0.0,85,0.00,,,0.00,16,WeatherCatV1.15B25,2013-05-15 10:19:00,
2013-05-15 06:24:00,45.7,41.8,29.93,North,350,0.0,0.0,86,0.00,,,0.00,23,WeatherCatV1.15B25,2013-05-15 10:24:00,
2013-05-15 06:29:00,45.8,41.9,29.93,North,350,0.0,0.0,86,0.00,,,0.00,32,WeatherCatV1.15B25,2013-05-15 10:29:00,
2013-05-15 06:34:00,45.9,42.0,29.94,North,350,0.0,0.0,86,0.00,,,0.00,42,WeatherCatV1.15B25,2013-05-15 10:34:00,
2013-05-15 06:39:00,46.0,42.0,29.94,North,350,0.0,0.0,86,0.00,,,0.00,58,WeatherCatV1.15B25,2013-05-15 10:39:00,
2013-05-15 06:44:00,46.4,42.4,29.94,North,350,0.0,0.0,86,0.00,,,0.00,60,WeatherCatV1.15B25,2013-05-15 10:44:00,
2013-05-15 06:46:00,46.4,42.4,29.94,North,350,0.0,0.0,86,0.00,,,0.00,63,WeatherCatV1.15B25,2013-05-15 10:46:00,
2013-05-15 06:51:00,46.8,42.8,29.94,North,350,0.0,0.0,86,0.00,,,0.00,69,WeatherCatV1.15B25,2013-05-15 10:51:00,
2013-05-15 06:56:00,47.1,42.8,29.94,North,350,0.0,0.0,85,0.00,,,0.00,69,WeatherCatV1.15B25,2013-05-15 10:56:00,
2013-05-15 07:01:00,47.5,43.5,29.93,North,350,0.0,1.0,86,0.00,,,0.00,56,WeatherCatV1.15B25,2013-05-15 11:01:00,
2013-05-15 07:05:00,47.8,43.8,29.93,North,350,0.0,0.0,86,0.00,,,0.00,70,WeatherCatV1.15B25,2013-05-15 11:05:00,
2013-05-15 07:10:00,48.1,43.8,29.93,WNW,293,0.0,0.0,85,0.00,,,0.00,67,WeatherCatV1.15B25,2013-05-15 11:10:00,
2013-05-15 07:15:00,48.4,44.1,29.94,WNW,293,0.0,0.0,85,0.00,,,0.00,63,WeatherCatV1.15B25,2013-05-15 11:15:00,
2013-05-15 07:20:00,48.6,44.3,29.94,WNW,293,0.0,0.0,85,0.00,,,0.00,65,WeatherCatV1.15B25,2013-05-15 11:20:00,
2013-05-15 07:25:00,48.9,44.6,29.93,WNW,293,0.0,0.0,85,0.00,,,0.00,90,WeatherCatV1.15B25,2013-05-15 11:25:00,
2013-05-15 07:30:00,49.2,44.9,29.94,WNW,293,0.0,0.0,85,0.00,,,0.00,69,WeatherCatV1.15B25,2013-05-15 11:30:00,
2013-05-15 07:35:00,49.5,44.9,29.93,WNW,293,0.0,0.0,84,0.00,,,0.00,65,WeatherCatV1.15B25,2013-05-15 11:35:00,
2013-05-15 07:40:00,49.7,45.4,29.93,WNW,293,0.0,0.0,85,0.00,,,0.00,76,WeatherCatV1.15B25,2013-05-15 11:40:00,
2013-05-15 07:43:00,49.9,45.3,29.93,WNW,293,0.0,0.0,84,0.00,,,0.00,83,WeatherCatV1.15B25,2013-05-15 11:43:00,
2013-05-15 07:45:00,50.0,45.4,29.93,WNW,293,0.0,0.0,84,0.00,,,0.00,93,WeatherCatV1.15B25,2013-05-15 11:45:00,
2013-05-15 07:48:00,50.1,45.5,29.93,WNW,293,0.0,0.0,84,0.00,,,0.00,107,WeatherCatV1.15B25,2013-05-15 11:48:00,
2013-05-15 07:52:00,50.3,45.7,29.93,WNW,293,0.0,0.0,84,0.00,,,0.00,121,WeatherCatV1.15B25,2013-05-15 11:52:00,
2013-05-15 07:57:00,50.5,45.5,29.94,WNW,293,0.0,0.0,83,0.00,,,0.00,109,WeatherCatV1.15B25,2013-05-15 11:57:00,
2013-05-15 08:02:00,50.7,45.7,29.93,WNW,293,0.0,0.0,83,0.00,,,0.00,118,WeatherCatV1.15B25,2013-05-15 12:02:00,
2013-05-15 08:07:00,51.0,45.7,29.94,WNW,293,0.0,0.0,82,0.00,,,0.00,118,WeatherCatV1.15B25,2013-05-15 12:07:00,
2013-05-15 08:12:00,51.2,45.9,29.94,North,2,0.0,1.0,82,0.00,,,0.00,160,WeatherCatV1.15B25,2013-05-15 12:12:00,
2013-05-15 08:17:00,51.6,46.0,29.94,North,2,0.0,0.0,81,0.00,,,0.00,403,WeatherCatV1.15B25,2013-05-15 12:17:00,
2013-05-15 08:22:00,52.1,46.4,29.94,South,191,0.0,2.0,81,0.00,,,0.00,165,WeatherCatV1.15B25,2013-05-15 12:22:00,
2013-05-15 08:27:00,52.4,46.1,29.94,SE,146,0.0,1.0,79,0.00,,,0.00,134,WeatherCatV1.15B25,2013-05-15 12:27:00,
2013-05-15 08:32:00,52.5,46.2,29.93,SE,146,0.0,0.0,79,0.00,,,0.00,183,WeatherCatV1.15B25,2013-05-15 12:32:00,
2013-05-15 08:37:00,52.9,46.9,29.93,SE,138,0.0,1.0,80,0.00,,,0.00,364,WeatherCatV1.15B25,2013-05-15 12:37:00,
2013-05-15 08:42:00,53.6,47.2,29.93,ESE,113,1.0,2.0,79,0.00,,,0.00,392,WeatherCatV1.15B25,2013-05-15 12:42:00,
2013-05-15 08:47:00,53.9,46.9,29.93,ESE,113,0.0,0.0,77,0.00,,,0.00,174,WeatherCatV1.15B25,2013-05-15 12:47:00,
2013-05-15 08:53:00,54.1,46.4,29.93,SE,131,0.0,1.0,75,0.00,,,0.00,137,WeatherCatV1.15B25,2013-05-15 12:53:00,
2013-05-15 08:58:00,54.2,45.7,29.92,SE,131,0.0,1.0,73,0.00,,,0.00,158,WeatherCatV1.15B25,2013-05-15 12:58:00,
2013-05-15 09:03:00,54.4,46.3,29.93,SE,131,0.0,0.0,74,0.00,,,0.00,568,WeatherCatV1.15B25,2013-05-15 13:03:00,
2013-05-15 09:08:00,55.1,46.2,29.92,ESE,106,0.0,1.0,72,0.00,,,0.00,357,WeatherCatV1.15B25,2013-05-15 13:08:00,
2013-05-15 09:13:00,55.7,45.3,29.92,NE,52,0.0,0.0,68,0.00,,,0.00,366,WeatherCatV1.15B25,2013-05-15 13:13:00,
2013-05-15 09:16:00,55.9,45.9,29.92,NE,52,0.0,0.0,69,0.00,,,0.00,181,WeatherCatV1.15B25,2013-05-15 13:16:00,
2013-05-15 09:21:00,56.2,45.8,29.92,East,99,0.0,2.0,68,0.00,,,0.00,207,WeatherCatV1.15B25,2013-05-15 13:21:00,
2013-05-15 09:26:00,56.3,46.6,29.91,SE,140,0.0,0.0,70,0.00,,,0.00,297,WeatherCatV1.15B25,2013-05-15 13:26:00,
2013-05-15 09:31:00,56.7,47.0,29.91,East,94,0.0,1.0,70,0.00,,,0.00,330,WeatherCatV1.15B25,2013-05-15 13:31:00,
2013-05-15 09:36:00,57.0,46.5,29.91,East,84,0.0,2.0,68,0.00,,,0.00,204,WeatherCatV1.15B25,2013-05-15 13:36:00,
2013-05-15 09:41:00,57.3,47.2,29.91,East,84,0.0,0.0,69,0.00,,,0.00,239,WeatherCatV1.15B25,2013-05-15 13:41:00,
2013-05-15 09:46:00,58.0,47.1,29.91,NW,304,0.0,0.0,67,0.00,,,0.00,531,WeatherCatV1.15B25,2013-05-15 13:46:00,
2013-05-15 09:47:00,58.0,47.1,29.91,NW,304,1.0,1.0,67,0.00,,,0.00,531,WeatherCatV1.15B25,2013-05-15 13:47:00,
2013-05-15 09:48:00,58.2,47.3,29.91,WSW,248,2.0,2.0,67,0.00,,,0.00,740,WeatherCatV1.15B25,2013-05-15 13:48:00,
2013-05-15 09:49:00,58.4,47.1,29.91,WSW,252,1.0,2.0,66,0.00,,,0.00,694,WeatherCatV1.15B25,2013-05-15 13:49:00,
2013-05-15 09:52:00,58.7,47.8,29.91,WSW,256,0.0,1.0,67,0.00,,,0.00,267,WeatherCatV1.15B25,2013-05-15 13:52:00,
2013-05-15 09:53:00,58.9,48.0,29.91,SSW,211,1.0,2.0,67,0.00,,,0.00,276,WeatherCatV1.15B25,2013-05-15 13:53:00,
2013-05-15 09:58:00,59.3,47.9,29.90,SSE,152,0.0,0.0,66,0.00,,,0.00,250,WeatherCatV1.15B25,2013-05-15 13:58:00,
2013-05-15 10:03:00,59.8,48.4,29.90,ESE,117,0.0,2.0,66,0.00,,,0.00,599,WeatherCatV1.15B25,2013-05-15 14:03:00,
2013-05-15 10:08:00,60.3,49.3,29.89,ESE,110,1.0,1.0,67,0.00,,,0.00,360,WeatherCatV1.15B25,2013-05-15 14:08:00,
2013-05-15 10:13:00,60.7,49.7,29.89,SSE,156,0.0,1.0,67,0.00,,,0.00,316,WeatherCatV1.15B25,2013-05-15 14:13:00,
2013-05-15 10:18:00,61.1,49.7,29.88,ENE,71,1.0,1.0,66,0.00,,,0.00,339,WeatherCatV1.15B25,2013-05-15 14:18:00,
2013-05-15 10:23:00,61.4,49.5,29.87,West,267,0.0,1.0,65,0.00,,,0.00,346,WeatherCatV1.15B25,2013-05-15 14:23:00,
2013-05-15 10:28:00,61.7,49.4,29.86,SE,131,0.0,3.0,64,0.00,,,0.00,262,WeatherCatV1.15B25,2013-05-15 14:28:00,
2013-05-15 10:33:00,61.9,50.8,29.86,NNW,330,0.0,2.0,67,0.00,,,0.00,216,WeatherCatV1.15B25,2013-05-15 14:33:00,
2013-05-15 10:38:00,62.1,50.2,29.86,SSE,150,0.0,2.0,65,0.00,,,0.00,190,WeatherCatV1.15B25,2013-05-15 14:38:00,
2013-05-15 10:43:00,62.1,51.0,29.85,NW,321,0.0,1.0,67,0.00,,,0.00,158,WeatherCatV1.15B25,2013-05-15 14:43:00,
2013-05-15 10:48:00,62.0,50.5,29.85,West,273,1.0,2.0,66,0.00,,,0.00,207,WeatherCatV1.15B25,2013-05-15 14:48:00,
2013-05-15 10:53:00,62.0,50.5,29.85,WNW,291,1.0,2.0,66,0.00,,,0.00,239,WeatherCatV1.15B25,2013-05-15 14:53:00,
2013-05-15 10:58:00,62.1,50.6,29.85,ESE,113,0.0,3.0,66,0.00,,,0.00,272,WeatherCatV1.15B25,2013-05-15 14:58:00,
2013-05-15 11:03:00,62.4,50.9,29.85,NNW,331,1.0,2.0,66,0.00,,,0.00,343,WeatherCatV1.15B25,2013-05-15 15:03:00,
2013-05-15 11:07:00,62.7,50.8,29.85,WNW,286,3.0,3.0,65,0.00,,,0.00,390,WeatherCatV1.15B25,2013-05-15 15:07:00,
2013-05-15 11:12:00,63.8,52.6,29.85,NNE,12,2.0,2.0,67,0.00,,,0.00,900,WeatherCatV1.15B25,2013-05-15 15:12:00,
2013-05-15 11:17:00,64.9,51.6,29.84,NNE,27,1.0,2.0,62,0.00,,,0.00,974,WeatherCatV1.15B25,2013-05-15 15:17:00,
2013-05-15 11:22:00,65.9,54.2,29.84,WSW,253,2.0,2.0,66,0.00,,,0.00,1048,WeatherCatV1.15B25,2013-05-15 15:22:00,
2013-05-15 11:27:00,67.0,54.4,29.84,West,266,3.0,6.0,64,0.00,,,0.00,1056,WeatherCatV1.15B25,2013-05-15 15:27:00,
2013-05-15 11:32:00,67.9,53.9,29.84,WNW,288,1.0,3.0,61,0.00,,,0.00,976,WeatherCatV1.15B25,2013-05-15 15:32:00,
2013-05-15 11:37:00,68.9,54.9,29.83,SSW,198,0.0,2.0,61,0.00,,,0.00,1053,WeatherCatV1.15B25,2013-05-15 15:37:00,
2013-05-15 11:42:00,70.0,55.9,29.83,West,277,1.0,4.0,61,0.00,,,0.00,949,WeatherCatV1.15B25,2013-05-15 15:42:00,
2013-05-15 11:47:00,70.8,55.8,29.83,WNW,292,2.0,4.0,59,0.00,,,0.00,606,WeatherCatV1.15B25,2013-05-15 15:47:00,
2013-05-15 11:52:00,71.5,56.9,29.83,WNW,291,2.0,3.0,60,0.00,,,0.00,939,WeatherCatV1.15B25,2013-05-15 15:52:00,
2013-05-15 11:57:00,72.3,59.4,29.82,WNW,301,1.0,1.0,64,0.00,,,0.00,545,WeatherCatV1.15B25,2013-05-15 15:57:00,
2013-05-15 12:02:00,72.8,57.1,29.82,East,92,0.0,3.0,58,0.00,,,0.00,570,WeatherCatV1.15B25,2013-05-15 16:02:00,
2013-05-15 12:07:00,73.0,58.3,29.81,WNW,299,0.0,2.0,60,0.00,,,0.00,557,WeatherCatV1.15B25,2013-05-15 16:07:00,
2013-05-15 12:12:00,73.6,58.4,29.81,WNW,300,0.0,1.0,59,0.00,,,0.00,527,WeatherCatV1.15B25,2013-05-15 16:12:00,
2013-05-15 12:19:00,74.2,59.9,29.81,NE,50,1.0,2.0,61,0.00,,,0.00,540,WeatherCatV1.15B25,2013-05-15 16:19:00,
2013-05-15 12:24:00,74.5,60.6,29.81,NE,40,1.0,3.0,62,0.00,,,0.00,485,WeatherCatV1.15B25,2013-05-15 16:24:00,
2013-05-15 12:29:00,74.6,60.7,29.81,NE,48,3.0,5.0,62,0.00,,,0.00,534,WeatherCatV1.15B25,2013-05-15 16:29:00,
2013-05-15 12:34:00,74.8,60.0,29.81,ENE,77,4.0,7.0,60,0.00,,,0.00,570,WeatherCatV1.15B25,2013-05-15 16:34:00,
2013-05-15 12:39:00,75.1,61.6,29.80,NE,42,1.0,5.0,63,0.00,,,0.00,879,WeatherCatV1.15B25,2013-05-15 16:39:00,
2013-05-15 12:44:00,75.4,60.1,29.80,NE,53,3.0,5.0,59,0.00,,,0.00,1034,WeatherCatV1.15B25,2013-05-15 16:44:00,
2013-05-15 12:49:00,75.8,61.4,29.80,North,352,0.0,2.0,61,0.00,,,0.00,882,WeatherCatV1.15B25,2013-05-15 16:49:00,
2013-05-15 12:54:00,76.6,60.7,29.80,ENE,58,0.0,5.0,58,0.00,,,0.00,1063,WeatherCatV1.15B25,2013-05-15 16:54:00,
2013-05-15 12:59:00,77.0,62.5,29.80,WNW,302,2.0,3.0,61,0.00,,,0.00,1125,WeatherCatV1.15B25,2013-05-15 16:59:00,
2013-05-15 13:04:00,77.6,61.6,29.80,North,350,0.0,3.0,58,0.00,,,0.00,1125,WeatherCatV1.15B25,2013-05-15 17:04:00,
2013-05-15 13:09:00,78.4,63.8,29.82,NNW,342,0.0,7.0,61,0.00,,,0.00,369,WeatherCatV1.15B25,2013-05-15 17:09:00,
2013-05-15 13:14:00,78.4,62.9,29.82,NE,37,2.0,6.0,59,0.00,,,0.00,1046,WeatherCatV1.15B25,2013-05-15 17:14:00,
2013-05-15 13:19:00,78.5,62.5,29.82,East,92,2.0,9.0,58,0.00,,,0.00,1014,WeatherCatV1.15B25,2013-05-15 17:19:00,
2013-05-15 13:24:00,77.5,60.0,29.82,ENE,73,3.0,8.0,55,0.00,,,0.00,680,WeatherCatV1.15B25,2013-05-15 17:24:00,
2013-05-15 13:29:00,76.7,60.3,29.82,NNE,28,1.0,7.0,57,0.00,,,0.00,1060,WeatherCatV1.15B25,2013-05-15 17:29:00,
2013-05-15 13:34:00,76.3,59.9,29.82,NE,51,6.0,10.0,57,0.00,,,0.00,573,WeatherCatV1.15B25,2013-05-15 17:34:00,
2013-05-15 13:39:00,75.9,60.5,29.82,NE,46,6.0,7.0,59,0.00,,,0.00,297,WeatherCatV1.15B25,2013-05-15 17:39:00,
2013-05-15 13:44:00,75.6,60.7,29.82,North,2,4.0,5.0,60,0.00,,,0.00,178,WeatherCatV1.15B25,2013-05-15 17:44:00,
2013-05-15 13:49:00,75.7,61.7,29.81,ENE,57,2.0,5.0,62,0.00,,,0.00,647,WeatherCatV1.15B25,2013-05-15 17:49:00,
2013-05-15 13:55:00,76.4,61.5,29.81,ENE,67,7.0,7.0,60,0.00,,,0.00,898,WeatherCatV1.15B25,2013-05-15 17:55:00,
2013-05-15 14:00:00,76.5,61.1,29.81,NW,320,2.0,3.0,59,0.00,,,0.00,916,WeatherCatV1.15B25,2013-05-15 18:00:00,
2013-05-15 14:05:00,77.1,60.7,29.80,NNE,23,1.0,3.0,57,0.00,,,0.00,912,WeatherCatV1.15B25,2013-05-15 18:05:00,
2013-05-15 14:06:00,77.2,62.7,29.80,East,83,3.0,3.0,61,0.00,,,0.00,914,WeatherCatV1.15B25,2013-05-15 18:06:00,
2013-05-15 14:11:00,77.6,62.1,29.79,NE,54,3.0,3.0,59,0.00,,,0.00,932,WeatherCatV1.15B25,2013-05-15 18:11:00,
2013-05-15 14:13:00,77.9,61.4,29.79,WNW,291,1.0,3.0,57,0.00,,,0.00,410,WeatherCatV1.15B25,2013-05-15 18:13:00,
2013-05-15 14:18:00,78.3,60.3,29.78,East,92,3.0,4.0,54,0.00,,,0.00,151,WeatherCatV1.15B25,2013-05-15 18:18:00,
2013-05-15 14:23:00,78.5,61.0,29.78,NE,50,4.0,4.0,55,0.00,,,0.00,476,WeatherCatV1.15B25,2013-05-15 18:23:00,
2013-05-15 14:28:00,78.7,61.2,29.77,ESE,104,1.0,6.0,55,0.00,,,0.00,888,WeatherCatV1.15B25,2013-05-15 18:28:00,
2013-05-15 14:33:00,78.9,61.8,29.77,NE,43,3.0,4.0,56,0.00,,,0.00,889,WeatherCatV1.15B25,2013-05-15 18:33:00,
2013-05-15 14:38:00,79.1,61.0,29.77,NE,56,1.0,2.0,54,0.00,,,0.00,877,WeatherCatV1.15B25,2013-05-15 18:38:00,
2013-05-15 14:43:00,79.2,62.1,29.77,ENE,65,4.0,5.0,56,0.00,,,0.00,872,WeatherCatV1.15B25,2013-05-15 18:43:00,
2013-05-15 14:48:00,79.6,63.0,29.76,East,100,3.0,4.0,57,0.00,,,0.00,863,WeatherCatV1.15B25,2013-05-15 18:48:00,
2013-05-15 14:53:00,79.7,62.6,29.76,East,100,6.0,7.0,56,0.00,,,0.00,860,WeatherCatV1.15B25,2013-05-15 18:53:00,
2013-05-15 14:58:00,79.7,63.6,29.76,ENE,63,2.0,3.0,58,0.00,,,0.00,851,WeatherCatV1.15B25,2013-05-15 18:58:00,
2013-05-15 15:03:00,80.0,63.4,29.75,NE,56,0.0,2.0,57,0.00,,,0.00,842,WeatherCatV1.15B25,2013-05-15 19:03:00,
2013-05-15 15:05:00,80.2,63.1,29.75,SE,130,1.0,6.0,56,0.00,,,0.00,837,WeatherCatV1.15B25,2013-05-15 19:05:00,
2013-05-15 15:10:00,80.3,65.1,29.75,ENE,69,3.0,3.0,60,0.00,,,0.00,824,WeatherCatV1.15B25,2013-05-15 19:10:00,
2013-05-15 15:16:00,80.5,62.3,29.75,East,98,0.0,3.0,54,0.00,,,0.00,824,WeatherCatV1.15B25,2013-05-15 19:16:00,
2013-05-15 15:21:00,80.6,62.9,29.74,ESE,112,1.0,6.0,55,0.00,,,0.00,812,WeatherCatV1.15B25,2013-05-15 19:21:00,
2013-05-15 15:26:00,80.6,63.4,29.74,SSE,166,1.0,6.0,56,0.00,,,0.00,807,WeatherCatV1.15B25,2013-05-15 19:26:00,
2013-05-15 15:31:00,81.1,63.4,29.74,WNW,299,2.0,2.0,55,0.00,,,0.00,747,WeatherCatV1.15B25,2013-05-15 19:31:00,
2013-05-15 15:36:00,81.3,63.6,29.73,ESE,112,1.0,1.0,55,0.00,,,0.00,724,WeatherCatV1.15B25,2013-05-15 19:36:00,
2013-05-15 15:41:00,81.5,63.7,29.73,East,84,2.0,2.0,55,0.00,,,0.00,740,WeatherCatV1.15B25,2013-05-15 19:41:00,
2013-05-15 15:46:00,81.8,64.0,29.73,East,97,5.0,5.0,55,0.00,,,0.00,770,WeatherCatV1.15B25,2013-05-15 19:46:00,
2013-05-15 15:51:00,82.0,65.2,29.72,SE,142,0.0,4.0,57,0.00,,,0.00,745,WeatherCatV1.15B25,2013-05-15 19:51:00,
2013-05-15 15:56:00,82.0,64.7,29.72,ESE,104,2.0,2.0,56,0.00,,,0.00,731,WeatherCatV1.15B25,2013-05-15 19:56:00,
2013-05-15 16:01:00,82.1,64.8,29.71,East,83,1.0,1.0,56,0.00,,,0.00,726,WeatherCatV1.15B25,2013-05-15 20:01:00,
2013-05-15 16:06:00,82.4,65.1,29.71,ESE,107,1.0,2.0,56,0.00,,,0.00,724,WeatherCatV1.15B25,2013-05-15 20:06:00,
2013-05-15 16:11:00,82.8,65.0,29.70,West,268,1.0,4.0,55,0.00,,,0.00,738,WeatherCatV1.15B25,2013-05-15 20:11:00,
2013-05-15 16:17:00,83.3,64.4,29.70,SE,140,2.0,2.0,53,0.00,,,0.00,686,WeatherCatV1.15B25,2013-05-15 20:17:00,
2013-05-15 16:22:00,83.5,65.1,29.70,SE,141,1.0,5.0,54,0.00,,,0.00,673,WeatherCatV1.15B25,2013-05-15 20:22:00,
2013-05-15 16:26:00,83.6,65.2,29.69,East,81,2.0,3.0,54,0.00,,,0.00,654,WeatherCatV1.15B25,2013-05-15 20:26:00,
2013-05-15 16:30:00,83.8,64.8,29.69,SE,127,0.0,1.0,53,0.00,,,0.00,649,WeatherCatV1.15B25,2013-05-15 20:30:00,
2013-05-15 16:36:00,84.2,65.2,29.69,West,260,2.0,3.0,53,0.00,,,0.00,629,WeatherCatV1.15B25,2013-05-15 20:36:00,
2013-05-15 16:39:00,84.7,67.2,29.69,WNW,295,3.0,3.0,56,0.00,,,0.00,629,WeatherCatV1.15B25,2013-05-15 20:39:00,
2013-05-15 16:44:00,85.4,65.7,29.69,West,259,2.0,2.0,52,0.00,,,0.00,621,WeatherCatV1.15B25,2013-05-15 20:44:00,
2013-05-15 16:45:00,86.1,64.7,29.68,WNW,283,0.0,2.0,49,0.00,,,0.00,610,WeatherCatV1.15B25,2013-05-15 20:45:00,
2013-05-15 16:48:00,86.5,65.6,29.67,SW,228,0.0,1.0,50,0.00,,,0.00,603,WeatherCatV1.15B25,2013-05-15 20:48:00,
2013-05-15 16:55:00,87.3,66.3,29.67,East,79,0.0,2.0,50,0.00,,,0.00,601,WeatherCatV1.15B25,2013-05-15 20:55:00,
2013-05-15 17:00:00,87.4,65.9,29.67,NE,46,1.0,3.0,49,0.00,,,0.00,264,WeatherCatV1.15B25,2013-05-15 21:00:00,
2013-05-15 17:03:00,87.4,64.0,29.67,SSE,156,2.0,2.0,46,0.00,,,0.00,483,WeatherCatV1.15B25,2013-05-15 21:03:00,
2013-05-15 17:04:00,87.4,64.7,29.67,SE,125,0.0,2.0,47,0.00,,,0.00,550,WeatherCatV1.15B25,2013-05-15 21:04:00,
2013-05-15 17:09:00,87.3,66.3,29.67,ENE,73,1.0,2.0,50,0.00,,,0.00,561,WeatherCatV1.15B25,2013-05-15 21:09:00,
2013-05-15 17:12:00,87.4,67.0,29.67,ESE,112,0.0,2.0,51,0.00,,,0.00,573,WeatherCatV1.15B25,2013-05-15 21:12:00,
2013-05-15 17:15:00,87.8,67.4,29.67,ESE,112,0.0,0.0,51,0.00,,,0.00,513,WeatherCatV1.15B25,2013-05-15 21:15:00,
2013-05-15 17:17:00,88.1,67.1,29.67,WSW,256,2.0,2.0,50,0.00,,,0.00,545,WeatherCatV1.15B25,2013-05-15 21:17:00,
2013-05-15 17:23:00,88.7,68.2,29.67,ESE,119,2.0,2.0,51,0.00,,,0.00,380,WeatherCatV1.15B25,2013-05-15 21:23:00,
2013-05-15 17:26:00,88.6,65.1,29.67,NNW,329,2.0,2.0,46,0.00,,,0.00,455,WeatherCatV1.15B25,2013-05-15 21:26:00,
2013-05-15 17:31:00,88.6,60.4,29.67,NW,304,4.0,6.0,39,0.00,,,0.00,446,WeatherCatV1.15B25,2013-05-15 21:31:00,
2013-05-15 17:35:00,88.8,59.9,29.67,West,274,4.0,6.0,38,0.00,,,0.00,290,WeatherCatV1.15B25,2013-05-15 21:35:00,
2013-05-15 17:39:00,89.1,58.6,29.67,West,264,3.0,7.0,36,0.00,,,0.00,417,WeatherCatV1.15B25,2013-05-15 21:39:00,
2013-05-15 17:43:00,89.5,59.0,29.67,WSW,254,4.0,6.0,36,0.00,,,0.00,515,WeatherCatV1.15B25,2013-05-15 21:43:00,
2013-05-15 17:47:00,89.9,56.9,29.67,West,273,3.0,5.0,33,0.00,,,0.00,483,WeatherCatV1.15B25,2013-05-15 21:47:00,
2013-05-15 17:51:00,90.1,57.1,29.67,SW,214,5.0,5.0,33,0.00,,,0.00,452,WeatherCatV1.15B25,2013-05-15 21:51:00,
2013-05-15 17:55:00,90.3,56.4,29.68,WSW,256,3.0,4.0,32,0.00,,,0.00,427,WeatherCatV1.15B25,2013-05-15 21:55:00,
2013-05-15 18:01:00,90.1,56.2,29.67,WSW,255,3.0,12.0,32,0.00,,,0.00,262,WeatherCatV1.15B25,2013-05-15 22:01:00,
2013-05-15 18:04:00,89.7,55.9,29.67,WNW,286,9.0,12.0,32,0.00,,,0.00,130,WeatherCatV1.15B25,2013-05-15 22:04:00,
2013-05-15 18:09:00,89.1,56.2,29.67,WNW,287,7.0,10.0,33,0.00,,,0.00,132,WeatherCatV1.15B25,2013-05-15 22:09:00,
2013-05-15 18:14:00,88.9,56.0,29.67,West,276,10.0,12.0,33,0.00,,,0.00,237,WeatherCatV1.15B25,2013-05-15 22:14:00,
2013-05-15 18:16:00,88.9,56.0,29.67,South,183,8.0,11.0,33,0.00,,,0.00,123,WeatherCatV1.15B25,2013-05-15 22:16:00,
2013-05-15 18:20:00,88.8,57.6,29.67,WSW,248,9.0,9.0,35,0.00,,,0.00,120,WeatherCatV1.15B25,2013-05-15 22:20:00,
2013-05-15 18:21:00,88.8,56.8,29.67,WNW,285,3.0,9.0,34,0.00,,,0.00,107,WeatherCatV1.15B25,2013-05-15 22:21:00,
2013-05-15 18:24:00,88.7,56.7,29.67,WSW,253,4.0,8.0,34,0.00,,,0.00,114,WeatherCatV1.15B25,2013-05-15 22:24:00,
2013-05-15 18:29:00,88.6,57.4,29.67,West,281,2.0,8.0,35,0.00,,,0.00,116,WeatherCatV1.15B25,2013-05-15 22:29:00,
2013-05-15 18:34:00,88.5,56.5,29.67,West,276,2.0,8.0,34,0.00,,,0.00,105,WeatherCatV1.15B25,2013-05-15 22:34:00,
2013-05-15 18:39:00,88.4,57.2,29.67,WNW,290,3.0,8.0,35,0.00,,,0.00,69,WeatherCatV1.15B25,2013-05-15 22:39:00,
2013-05-15 18:44:00,88.1,57.7,29.67,WNW,283,2.0,5.0,36,0.00,,,0.00,72,WeatherCatV1.15B25,2013-05-15 22:44:00,
2013-05-15 18:46:00,87.8,57.5,29.67,West,281,2.0,2.0,36,0.00,,,0.00,74,WeatherCatV1.15B25,2013-05-15 22:46:00,
2013-05-15 18:50:00,87.7,57.4,29.67,WSW,253,2.0,5.0,36,0.00,,,0.00,70,WeatherCatV1.15B25,2013-05-15 22:50:00,
2013-05-15 18:52:00,87.6,57.3,29.67,West,276,1.0,3.0,36,0.00,,,0.00,69,WeatherCatV1.15B25,2013-05-15 22:52:00,
2013-05-15 18:59:00,87.2,57.7,29.67,West,273,4.0,4.0,37,0.00,,,0.00,63,WeatherCatV1.15B25,2013-05-15 22:59:00,
2013-05-15 19:04:00,86.8,56.6,29.67,WNW,301,4.0,9.0,36,0.00,,,0.00,65,WeatherCatV1.15B25,2013-05-15 23:04:00,
2013-05-15 19:06:00,86.8,58.1,29.67,WNW,296,5.0,9.0,38,0.00,,,0.00,65,WeatherCatV1.15B25,2013-05-15 23:06:00,
2013-05-15 19:11:00,86.5,57.8,29.68,WNW,286,6.0,7.0,38,0.00,,,0.00,56,WeatherCatV1.15B25,2013-05-15 23:11:00,
2013-05-15 19:16:00,86.2,56.8,29.68,West,272,5.0,9.0,37,0.00,,,0.00,60,WeatherCatV1.15B25,2013-05-15 23:16:00,
2013-05-15 19:22:00,86.2,56.8,29.68,WNW,289,6.0,9.0,37,0.00,,,0.00,49,WeatherCatV1.15B25,2013-05-15 23:22:00,
2013-05-15 19:26:00,86.2,56.8,29.68,West,261,4.0,5.0,37,0.00,,,0.00,46,WeatherCatV1.15B25,2013-05-15 23:26:00,
2013-05-15 19:32:00,86.2,56.8,29.68,WNW,302,5.0,7.0,37,0.00,,,0.00,37,WeatherCatV1.15B25,2013-05-15 23:32:00,
2013-05-15 19:36:00,86.0,56.7,29.68,WSW,250,3.0,5.0,37,0.00,,,0.00,37,WeatherCatV1.15B25,2013-05-15 23:36:00,
2013-05-15 19:38:00,85.9,58.0,29.68,WNW,285,2.0,3.0,39,0.00,,,0.00,35,WeatherCatV1.15B25,2013-05-15 23:38:00,
2013-05-15 19:44:00,85.4,57.6,29.69,NW,305,4.0,4.0,39,0.00,,,0.00,33,WeatherCatV1.15B25,2013-05-15 23:44:00,
2013-05-15 19:45:00,85.4,58.3,29.69,NW,308,7.0,7.0,40,0.00,,,0.00,33,WeatherCatV1.15B25,2013-05-15 23:45:00,
2013-05-15 19:51:00,85.3,58.2,29.69,West,274,2.0,4.0,40,0.00,,,0.00,32,WeatherCatV1.15B25,2013-05-15 23:51:00,
2013-05-15 19:55:00,85.1,58.0,29.69,WNW,291,2.0,3.0,40,0.00,,,0.00,26,WeatherCatV1.15B25,2013-05-15 23:55:00,
2013-05-15 19:59:00,84.8,57.8,29.69,WNW,302,1.0,3.0,40,0.00,,,0.00,21,WeatherCatV1.15B25,2013-05-15 23:59:00,
2013-05-15 20:03:00,84.5,58.2,29.69,NW,305,2.0,3.0,41,0.00,,,0.00,16,WeatherCatV1.15B25,2013-05-16 00:03:00,
2013-05-15 20:06:00,84.3,58.0,29.70,WNW,285,1.0,2.0,41,0.00,,,0.00,12,WeatherCatV1.15B25,2013-05-16 00:06:00,
2013-05-15 20:12:00,83.7,58.1,29.70,West,275,1.0,2.0,42,0.00,,,0.00,9,WeatherCatV1.15B25,2013-05-16 00:12:00,
2013-05-15 20:17:00,83.0,60.7,29.70,WNW,302,0.0,1.0,47,0.00,,,0.00,5,WeatherCatV1.15B25,2013-05-16 00:17:00,
2013-05-15 20:22:00,82.2,58.7,29.70,West,269,1.0,3.0,45,0.00,,,0.00,0,WeatherCatV1.15B25,2013-05-16 00:22:00,
2013-05-15 20:26:00,81.6,58.2,29.70,WNW,293,1.0,3.0,45,0.00,,,0.00,0,WeatherCatV1.15B25,2013-05-16 00:26:00,
2013-05-15 20:29:00,81.5,58.1,29.70,West,273,3.0,3.0,45,0.00,,,0.00,0,WeatherCatV1.15B25,2013-05-16 00:29:00,
2013-05-15 20:32:00,81.4,58.6,29.71,WNW,289,2.0,2.0,46,0.00,,,0.00,0,WeatherCatV1.15B25,2013-05-16 00:32:00,
2013-05-15 20:37:00,81.4,58.6,29.71,West,273,1.0,2.0,46,0.00,,,0.00,0,WeatherCatV1.15B25,2013-05-16 00:37:00,
2013-05-15 20:42:00,81.4,59.2,29.71,West,273,0.0,1.0,47,0.00,,,0.00,0,WeatherCatV1.15B25,2013-05-16 00:42:00,
2013-05-15 20:46:00,81.0,58.8,29.71,West,269,1.0,2.0,47,0.00,,,0.00,0,WeatherCatV1.15B25,2013-05-16 00:46:00,
2013-05-15 20:50:00,80.6,60.2,29.71,WSW,256,1.0,2.0,50,0.00,,,0.00,0,WeatherCatV1.15B25,2013-05-16 00:50:00,
2013-05-15 20:52:00,80.3,58.8,29.71,West,266,0.0,2.0,48,0.00,,,0.00,0,WeatherCatV1.15B25,2013-05-16 00:52:00,
2013-05-15 20:57:00,79.9,60.1,29.72,WNW,287,0.0,2.0,51,0.00,,,0.00,0,WeatherCatV1.15B25,2013-05-16 00:57:00,
2013-05-15 21:00:00,79.5,59.8,29.72,WNW,287,1.0,1.0,51,0.00,,,0.00,0,WeatherCatV1.15B25,2013-05-16 01:00:00,
2013-05-15 21:04:00,79.1,60.5,29.73,WNW,287,0.0,0.0,53,0.00,,,0.00,0,WeatherCatV1.15B25,2013-05-16 01:04:00,
2013-05-15 21:12:00,78.4,60.9,29.73,NW,311,0.0,2.0,55,0.00,,,0.00,0,WeatherCatV1.15B25,2013-05-16 01:12:00,
2013-05-15 21:15:00,78.2,60.2,29.73,NW,311,0.0,2.0,54,0.00,,,0.00,0,WeatherCatV1.15B25,2013-05-16 01:15:00,
2013-05-15 21:18:00,77.9,59.4,29.74,NW,311,1.0,1.0,53,0.00,,,0.00,0,WeatherCatV1.15B25,2013-05-16 01:18:00,
2013-05-15 21:24:00,77.3,60.4,29.73,NW,305,0.0,1.0,56,0.00,,,0.00,0,WeatherCatV1.15B25,2013-05-16 01:24:00,
2013-05-15 21:26:00,77.1,59.7,29.73,West,276,2.0,2.0,55,0.00,,,0.00,0,WeatherCatV1.15B25,2013-05-16 01:26:00,
2013-05-15 21:31:00,76.9,60.0,29.74,WNW,296,2.0,2.0,56,0.00,,,0.00,0,WeatherCatV1.15B25,2013-05-16 01:31:00,
2013-05-15 21:33:00,76.7,59.8,29.74,West,276,2.0,3.0,56,0.00,,,0.00,0,WeatherCatV1.15B25,2013-05-16 01:33:00,
2013-05-15 21:37:00,76.9,59.5,29.74,West,274,2.0,3.0,55,0.00,,,0.00,0,WeatherCatV1.15B25,2013-05-16 01:37:00,
2013-05-15 21:40:00,77.3,58.8,29.74,West,275,1.0,2.0,53,0.00,,,0.00,0,WeatherCatV1.15B25,2013-05-16 01:40:00,
2013-05-15 21:45:00,77.8,58.7,29.74,West,269,2.0,2.0,52,0.00,,,0.00,0,WeatherCatV1.15B25,2013-05-16 01:45:00,
2013-05-15 21:50:00,78.1,59.6,29.74,WNW,291,2.0,2.0,53,0.00,,,0.00,0,WeatherCatV1.15B25,2013-05-16 01:50:00,
2013-05-15 21:54:00,78.1,59.0,29.75,WNW,285,2.0,4.0,52,0.00,,,0.00,0,WeatherCatV1.15B25,2013-05-16 01:54:00,
2013-05-15 21:58:00,78.4,59.8,29.75,WNW,283,2.0,3.0,53,0.00,,,0.00,0,WeatherCatV1.15B25,2013-05-16 01:58:00,
2013-05-15 22:03:00,78.5,58.8,29.75,West,271,2.0,4.0,51,0.00,,,0.00,0,WeatherCatV1.15B25,2013-05-16 02:03:00,
2013-05-15 22:08:00,78.8,59.7,29.75,West,260,0.0,2.0,52,0.00,,,0.00,0,WeatherCatV1.15B25,2013-05-16 02:08:00,
2013-05-15 22:13:00,78.8,59.7,29.75,West,264,0.0,3.0,52,0.00,,,0.00,0,WeatherCatV1.15B25,2013-05-16 02:13:00,
2013-05-15 22:17:00,78.6,60.0,29.75,West,275,1.0,4.0,53,0.00,,,0.00,0,WeatherCatV1.15B25,2013-05-16 02:17:00,
2013-05-15 22:23:00,78.4,59.3,29.75,West,269,1.0,5.0,52,0.00,,,0.00,0,WeatherCatV1.15B25,2013-05-16 02:23:00,
2013-05-15 22:26:00,78.5,59.4,29.75,NW,306,2.0,2.0,52,0.00,,,0.00,0,WeatherCatV1.15B25,2013-05-16 02:26:00,
2013-05-15 22:30:00,78.4,59.3,29.75,WNW,298,1.0,2.0,52,0.00,,,0.00,0,WeatherCatV1.15B25,2013-05-16 02:30:00,
2013-05-15 22:34:00,78.3,59.2,29.75,West,266,1.0,2.0,52,0.00,,,0.00,0,WeatherCatV1.15B25,2013-05-16 02:34:00,
2013-05-15 22:39:00,78.3,59.7,29.75,West,266,1.0,2.0,53,0.00,,,0.00,0,WeatherCatV1.15B25,2013-05-16 02:39:00,
2013-05-15 22:43:00,78.3,58.7,29.75,West,262,1.0,1.0,51,0.00,,,0.00,0,WeatherCatV1.15B25,2013-05-16 02:43:00,
2013-05-15 22:45:00,78.3,58.7,29.75,West,278,4.0,4.0,51,0.00,,,0.00,0,WeatherCatV1.15B25,2013-05-16 02:45:00,
2013-05-15 22:50:00,78.4,59.8,29.75,WSW,252,1.0,2.0,53,0.00,,,0.00,0,WeatherCatV1.15B25,2013-05-16 02:50:00,
2013-05-15 22:54:00,78.2,60.2,29.75,WNW,283,2.0,2.0,54,0.00,,,0.00,0,WeatherCatV1.15B25,2013-05-16 02:54:00,
2013-05-15 22:59:00,77.9,60.4,29.75,West,279,1.0,2.0,55,0.00,,,0.00,0,WeatherCatV1.15B25,2013-05-16 02:59:00,
2013-05-15 23:06:00,77.5,59.0,29.75,WSW,251,0.0,0.0,53,0.00,,,0.00,0,WeatherCatV1.15B25,2013-05-16 03:06:00,
2013-05-15 23:09:00,77.4,59.4,29.75,WSW,251,0.0,1.0,54,0.00,,,0.00,0,WeatherCatV1.15B25,2013-05-16 03:09:00,
2013-05-15 23:14:00,77.1,60.2,29.75,WNW,283,1.0,3.0,56,0.00,,,0.00,0,WeatherCatV1.15B25,2013-05-16 03:14:00,
2013-05-15 23:19:00,76.7,59.3,29.75,WNW,283,0.0,1.0,55,0.00,,,0.00,0,WeatherCatV1.15B25,2013-05-16 03:19:00,
2013-05-15 23:23:00,76.6,59.2,29.75,WSW,243,0.0,0.0,55,0.00,,,0.00,0,WeatherCatV1.15B25,2013-05-16 03:23:00,
2013-05-15 23:28:00,76.4,60.0,29.75,ENE,70,1.0,2.0,57,0.00,,,0.00,0,WeatherCatV1.15B25,2013-05-16 03:28:00,
2013-05-15 23:30:00,76.2,59.3,29.75,WSW,254,0.0,1.0,56,0.00,,,0.00,0,WeatherCatV1.15B25,2013-05-16 03:30:00,
2013-05-15 23:35:00,76.0,59.2,29.75,ESE,109,2.0,2.0,56,0.00,,,0.00,0,WeatherCatV1.15B25,2013-05-16 03:35:00,
2013-05-15 23:39:00,76.0,59.6,29.75,ESE,110,0.0,0.0,57,0.00,,,0.00,0,WeatherCatV1.15B25,2013-05-16 03:39:00,
2013-05-15 23:42:00,75.8,59.5,29.75,ESE,110,0.0,0.0,57,0.00,,,0.00,0,WeatherCatV1.15B25,2013-05-16 03:42:00,
2013-05-15 23:45:00,75.6,59.8,29.75,ESE,110,0.0,0.0,58,0.00,,,0.00,0,WeatherCatV1.15B25,2013-05-16 03:45:00,
2013-05-15 23:52:00,74.7,59.9,29.75,WNW,295,0.0,1.0,60,0.00,,,0.00,0,WeatherCatV1.15B25,2013-05-16 03:52:00,
2013-05-15 23:58:00,74.2,58.9,29.75,WNW,296,2.0,2.0,59,0.00,,,0.00,0,WeatherCatV1.15B25,2013-05-16 03:58:00,